Tuckerman, Arkansas
Current Conditions -  °F | °C
As of 6:56 AM on Sunday 23 Nov 2014 (Local Time) from KM19 Reporting Station
Light Rain Light Rain  
Wind Chill: 57°   Ceiling: 1100
Heat Index: 57°   Visibility: 5mi
Dew Point: 56°   Wind: 13mph
Humidity: 97%   Direction: 140°SE
Pressure: 29.71"   Gusts: NA
Location:  35.73°N, 91.2°W
Report Text: KM19 231256Z AUTO 14011KT 5SM -RA BR OVC011 14/13 A2971 RMK AO2 T01380133 P0003 SLP059
Loading
Personal Weather Stations






























Interactive Weather Map New forecast layout! Learn more

10-Day Weather Forecast

Advertisements
Track Severe Weather on mobile